createdAt,value
2017-12-05T00:00:59.784Z,35.67
2017-12-05T00:03:27.223Z,31.67
2017-12-05T00:05:54.665Z,25.70
2017-12-05T00:08:22.106Z,32.83
2017-12-05T00:10:49.506Z,33.30
2017-12-05T00:13:16.936Z,32.90
2017-12-05T00:15:44.339Z,32.10
2017-12-05T00:18:11.782Z,40.03
2017-12-05T00:20:39.194Z,33.53
2017-12-05T00:23:06.639Z,33.80
2017-12-05T00:25:34.077Z,30.73
2017-12-05T00:28:01.707Z,29.23
2017-12-05T00:30:29.139Z,30.07
2017-12-05T00:32:56.560Z,30.67
2017-12-05T00:35:23.961Z,32.67
2017-12-05T00:37:51.383Z,86.65
2017-12-05T00:40:18.809Z,29.70
2017-12-05T00:42:46.260Z,32.67
2017-12-05T00:45:13.693Z,36.77
2017-12-05T00:47:41.152Z,30.30
2017-12-05T00:50:08.571Z,28.57
2017-12-05T00:52:36.043Z,28.07
2017-12-05T00:55:03.449Z,30.12
2017-12-05T00:57:32.304Z,32.87
2017-12-05T00:59:59.725Z,25.50
2017-12-05T01:02:27.153Z,31.10
2017-12-05T01:04:54.562Z,33.50
2017-12-05T01:07:21.999Z,24.33
2017-12-05T01:09:49.453Z,32.67
2017-12-05T01:12:16.925Z,26.57
2017-12-05T01:14:44.356Z,34.03
2017-12-05T01:17:11.814Z,28.50
2017-12-05T01:19:39.221Z,34.63
2017-12-05T01:22:06.635Z,28.08
2017-12-05T01:24:34.089Z,32.30
2017-12-05T01:27:01.673Z,35.73
2017-12-05T01:29:29.109Z,29.77
2017-12-05T01:31:56.521Z,28.20
2017-12-05T01:34:23.938Z,33.20
2017-12-05T01:36:51.398Z,25.93
2017-12-05T01:39:18.882Z,25.00
2017-12-05T01:41:46.320Z,30.93
2017-12-05T01:44:13.981Z,24.70
2017-12-05T01:46:41.436Z,33.07
2017-12-05T01:49:08.873Z,26.97
2017-12-05T01:51:36.332Z,29.37
2017-12-05T01:54:03.741Z,29.83
2017-12-05T01:56:31.178Z,27.33
2017-12-05T01:58:58.614Z,40.47
2017-12-05T02:01:26.116Z,28.10
2017-12-05T02:03:53.524Z,29.60
2017-12-05T02:06:20.940Z,27.80
2017-12-05T02:08:48.389Z,30.43
2017-12-05T02:11:15.777Z,28.40
2017-12-05T02:13:43.301Z,31.00
2017-12-05T02:16:10.738Z,29.00
2017-12-05T02:18:38.154Z,34.07
2017-12-05T02:21:05.616Z,30.30
2017-12-05T02:23:33.035Z,28.37
2017-12-05T02:26:00.444Z,30.47
2017-12-05T02:28:27.886Z,29.50
2017-12-05T02:30:55.539Z,30.20
2017-12-05T02:33:22.941Z,32.87
2017-12-05T02:35:50.448Z,35.73
2017-12-05T02:38:17.905Z,26.87
2017-12-05T02:40:57.115Z,32.60
2017-12-05T02:43:24.603Z,28.13
2017-12-05T02:45:52.014Z,34.43
2017-12-05T02:48:19.413Z,29.07
2017-12-05T02:50:46.899Z,28.43
2017-12-05T02:53:14.271Z,29.73
2017-12-05T02:55:41.708Z,33.80
2017-12-05T03:01:39.525Z,46.17
2017-12-05T03:04:07.093Z,28.50
2017-12-05T03:06:34.582Z,31.83
2017-12-05T03:09:02.011Z,30.70
2017-12-05T03:11:29.503Z,32.20
2017-12-05T03:13:56.917Z,30.77
2017-12-05T03:16:24.498Z,31.47
2017-12-05T03:18:51.897Z,32.10
2017-12-05T03:21:19.384Z,27.10
2017-12-05T03:23:46.784Z,26.13
2017-12-05T03:26:14.201Z,32.60
2017-12-05T03:28:41.607Z,31.57
2017-12-05T03:31:09.003Z,31.10
2017-12-05T03:33:36.454Z,26.37
2017-12-05T03:36:03.846Z,30.03
2017-12-05T03:38:31.249Z,34.13
2017-12-05T03:40:58.720Z,30.77
2017-12-05T03:43:26.134Z,30.10
2017-12-05T03:45:53.558Z,30.10
2017-12-05T03:48:20.959Z,36.40
2017-12-05T03:50:48.404Z,30.93
2017-12-05T03:53:15.864Z,28.53
2017-12-05T03:55:43.278Z,33.07
2017-12-05T03:58:10.715Z,32.03
2017-12-05T04:00:38.127Z,34.17
2017-12-05T04:03:05.531Z,35.15
2017-12-05T04:05:32.975Z,35.67
2017-12-05T04:08:00.389Z,34.17
2017-12-05T04:10:27.842Z,35.43
2017-12-05T04:12:55.282Z,30.30
2017-12-05T04:15:22.675Z,31.30
2017-12-05T04:17:50.337Z,31.60
2017-12-05T04:20:17.777Z,29.67
2017-12-05T04:22:45.660Z,31.00
2017-12-05T04:25:13.090Z,37.33
2017-12-05T04:27:40.513Z,33.20
2017-12-05T04:30:07.957Z,33.60
2017-12-05T04:32:35.373Z,33.70
2017-12-05T04:35:02.817Z,33.00
2017-12-05T04:37:30.227Z,36.67
2017-12-05T04:39:57.694Z,31.73
2017-12-05T04:42:25.097Z,31.67
2017-12-05T04:44:52.539Z,33.10
2017-12-05T04:47:19.967Z,38.93
2017-12-05T04:49:47.388Z,32.27
2017-12-05T04:52:14.826Z,31.97
2017-12-05T04:54:42.254Z,32.93
2017-12-05T04:57:09.693Z,31.40
2017-12-05T04:59:37.117Z,33.57
2017-12-05T05:02:04.589Z,32.03
2017-12-05T05:04:31.992Z,29.70
2017-12-05T05:06:59.400Z,31.60
2017-12-05T05:09:26.828Z,30.27
2017-12-05T05:11:54.410Z,30.50
2017-12-05T05:14:21.828Z,33.47
2017-12-05T05:16:49.264Z,36.57
2017-12-05T05:19:16.761Z,28.53
2017-12-05T05:21:45.083Z,30.45
2017-12-05T05:24:12.523Z,38.07
2017-12-05T05:26:39.956Z,30.83
2017-12-05T05:29:07.356Z,32.00
2017-12-05T05:31:34.820Z,30.83
2017-12-05T05:34:02.245Z,29.80
2017-12-05T05:36:29.664Z,33.47
2017-12-05T05:38:57.065Z,33.93
2017-12-05T05:41:24.491Z,33.70
2017-12-05T05:43:51.917Z,32.13
2017-12-05T05:46:19.338Z,35.73
2017-12-05T05:48:46.843Z,32.67
2017-12-05T05:51:14.256Z,38.53
2017-12-05T05:53:41.682Z,38.87
2017-12-05T05:56:09.091Z,34.90
2017-12-05T05:58:36.506Z,29.87
2017-12-05T06:01:03.934Z,33.57
2017-12-05T06:03:31.385Z,37.65
2017-12-05T06:05:58.825Z,61.07
2017-12-05T06:08:26.253Z,60.57
2017-12-05T06:10:53.677Z,33.23
2017-12-05T06:13:21.070Z,39.40
2017-12-05T06:15:48.542Z,39.33
2017-12-05T06:18:15.976Z,44.53
2017-12-05T06:20:43.420Z,32.90
2017-12-05T06:23:10.892Z,32.53
2017-12-05T06:25:38.298Z,32.70
2017-12-05T06:28:05.858Z,30.17
2017-12-05T06:30:33.274Z,30.03
2017-12-05T06:33:00.848Z,29.20
2017-12-05T06:35:28.226Z,31.80
2017-12-05T06:37:55.705Z,27.70
2017-12-05T06:40:23.144Z,31.73
2017-12-05T06:42:50.570Z,29.70
2017-12-05T06:45:17.982Z,36.00
2017-12-05T06:47:45.441Z,38.23
2017-12-05T06:50:12.873Z,38.07
2017-12-05T06:52:40.301Z,36.93
2017-12-05T06:55:07.754Z,28.97
2017-12-05T06:57:35.176Z,37.20
2017-12-05T07:00:02.593Z,28.57
2017-12-05T07:02:29.993Z,29.97
2017-12-05T07:04:57.425Z,30.05
2017-12-05T07:07:24.848Z,30.83
2017-12-05T07:09:52.279Z,31.30
2017-12-05T07:12:19.706Z,29.83
2017-12-05T07:14:47.188Z,28.30
2017-12-05T07:17:14.629Z,30.10
2017-12-05T07:19:42.051Z,25.53
2017-12-05T07:22:09.473Z,28.35
2017-12-05T07:24:36.916Z,21.43
2017-12-05T07:27:04.349Z,26.07
2017-12-05T07:29:31.828Z,24.93
2017-12-05T07:31:59.257Z,25.50
2017-12-05T07:34:26.646Z,25.43
2017-12-05T07:36:54.394Z,25.90
2017-12-05T07:39:21.790Z,21.93
2017-12-05T07:41:49.223Z,21.23
2017-12-05T07:44:16.706Z,24.20
2017-12-05T07:46:44.139Z,23.70
2017-12-05T07:49:11.697Z,25.87
2017-12-05T07:51:39.101Z,25.40
2017-12-05T07:54:06.568Z,23.13
2017-12-05T07:56:33.984Z,22.40
2017-12-05T07:59:01.415Z,17.90
2017-12-05T08:01:28.850Z,26.25
2017-12-05T08:03:56.263Z,23.00
2017-12-05T08:06:23.662Z,23.73
2017-12-05T08:08:51.078Z,24.17
2017-12-05T08:11:18.598Z,21.37
2017-12-05T08:13:46.007Z,33.30
2017-12-05T08:16:13.457Z,28.10
2017-12-05T08:18:40.944Z,19.20
2017-12-05T08:21:08.394Z,17.23
2017-12-05T08:23:36.026Z,19.10
2017-12-05T08:26:03.599Z,25.40
2017-12-05T08:28:30.997Z,19.27
2017-12-05T08:30:58.411Z,16.60
2017-12-05T08:33:25.851Z,17.17
2017-12-05T08:35:53.263Z,16.13
2017-12-05T08:38:20.925Z,17.20
2017-12-05T08:40:48.330Z,21.93
2017-12-05T08:43:15.801Z,17.40
2017-12-05T08:45:43.189Z,16.10
2017-12-05T08:48:10.655Z,16.60
2017-12-05T08:50:38.040Z,14.93
2017-12-05T08:53:05.445Z,14.17
2017-12-05T08:55:32.829Z,16.27
2017-12-05T08:58:00.344Z,17.67
2017-12-05T09:00:27.785Z,19.37
2017-12-05T09:02:55.207Z,14.90
2017-12-05T09:05:22.657Z,16.30
2017-12-05T09:07:50.073Z,12.60
2017-12-05T09:10:17.548Z,16.87
2017-12-05T09:12:44.975Z,16.03
2017-12-05T09:15:12.387Z,34.10
2017-12-05T09:17:39.814Z,34.80
2017-12-05T09:20:07.239Z,17.33
2017-12-05T09:22:34.646Z,21.20
2017-12-05T09:25:02.062Z,13.47
2017-12-05T09:27:29.641Z,13.57
2017-12-05T09:29:57.063Z,14.80
2017-12-05T09:32:24.495Z,12.00
2017-12-05T09:34:51.932Z,13.37
2017-12-05T09:37:19.476Z,13.33
2017-12-05T09:39:46.955Z,13.87
2017-12-05T09:42:14.370Z,18.40
2017-12-05T09:44:41.815Z,13.67
2017-12-05T09:47:09.235Z,17.77
2017-12-05T09:49:36.662Z,17.57
2017-12-05T09:52:04.101Z,14.50
2017-12-05T09:54:31.537Z,13.13
2017-12-05T09:56:58.955Z,11.90
2017-12-05T09:59:26.404Z,16.12
2017-12-05T10:01:53.799Z,14.27
2017-12-05T10:04:21.241Z,13.07
2017-12-05T10:06:48.697Z,14.10
2017-12-05T10:09:16.554Z,22.98
2017-12-05T10:11:44.000Z,11.53
2017-12-05T10:14:11.393Z,12.43
2017-12-05T10:16:38.830Z,13.00
2017-12-05T10:19:06.265Z,12.03
2017-12-05T10:21:33.686Z,14.17
2017-12-05T10:24:01.112Z,12.17
2017-12-05T10:26:28.539Z,14.93
2017-12-05T10:28:55.977Z,39.43
2017-12-05T10:31:23.399Z,50.07
2017-12-05T10:33:50.797Z,30.67
2017-12-05T10:36:18.452Z,38.00
2017-12-05T10:38:45.869Z,11.07
2017-12-05T10:41:13.286Z,26.83
2017-12-05T10:43:40.721Z,18.60
2017-12-05T10:46:08.138Z,14.73
2017-12-05T10:48:35.581Z,14.10
2017-12-05T10:51:02.972Z,13.00
2017-12-05T10:53:30.416Z,13.00
2017-12-05T10:55:57.843Z,13.00
2017-12-05T10:58:25.291Z,13.33
2017-12-05T11:00:52.708Z,13.67
2017-12-05T11:03:20.163Z,15.47
2017-12-05T11:05:47.567Z,13.90
2017-12-05T11:08:14.980Z,17.43
2017-12-05T11:10:42.411Z,23.90
2017-12-05T11:13:09.878Z,15.80
2017-12-05T11:15:37.321Z,19.90
2017-12-05T11:18:04.748Z,12.70
2017-12-05T11:20:32.181Z,18.97
2017-12-05T11:22:59.598Z,10.00
2017-12-05T11:25:27.652Z,21.27
2017-12-05T11:27:55.060Z,12.80
2017-12-05T11:30:22.530Z,13.33
2017-12-05T11:32:49.969Z,13.98
2017-12-05T11:35:17.358Z,18.87
2017-12-05T11:37:44.787Z,19.63
2017-12-05T11:40:12.218Z,16.00
2017-12-05T11:42:39.656Z,19.33
2017-12-05T11:45:07.082Z,16.52
2017-12-05T11:47:34.513Z,15.23
2017-12-05T11:50:01.996Z,21.98
2017-12-05T11:52:29.389Z,30.17
2017-12-05T11:54:56.903Z,18.57
2017-12-05T11:57:24.329Z,20.47
2017-12-05T11:59:51.748Z,15.37
2017-12-05T12:02:19.165Z,12.27
2017-12-05T12:04:46.619Z,16.33
2017-12-05T12:07:14.073Z,22.37
2017-12-05T12:09:41.469Z,27.53
2017-12-05T12:12:08.923Z,16.73
2017-12-05T12:14:36.355Z,13.23
2017-12-05T12:17:07.154Z,22.80
2017-12-05T12:19:34.584Z,13.97
2017-12-05T12:22:02.088Z,23.10
2017-12-05T12:24:29.487Z,26.70
2017-12-05T12:26:56.918Z,19.77
2017-12-05T12:29:24.347Z,20.83
2017-12-05T12:31:51.775Z,19.30
2017-12-05T12:34:19.215Z,15.40
2017-12-05T12:36:47.500Z,18.77
2017-12-05T12:39:14.914Z,25.00
2017-12-05T12:41:42.399Z,19.57
2017-12-05T12:44:09.895Z,17.50
2017-12-05T12:46:37.321Z,18.50
2017-12-05T12:49:04.761Z,15.87
2017-12-05T12:51:32.211Z,15.00
2017-12-05T12:53:59.657Z,14.13
2017-12-05T12:56:27.092Z,18.70
2017-12-05T12:58:54.488Z,21.63
2017-12-05T13:01:21.931Z,20.70
2017-12-05T13:03:49.349Z,12.77
2017-12-05T13:06:16.867Z,27.20
2017-12-05T13:08:44.305Z,32.87
2017-12-05T13:11:11.689Z,24.77
2017-12-05T13:13:39.158Z,19.97
2017-12-05T13:16:06.579Z,17.23
2017-12-05T13:18:34.004Z,16.90
2017-12-05T13:21:01.427Z,15.73
2017-12-05T13:23:28.926Z,27.30
2017-12-05T13:25:56.436Z,12.83
2017-12-05T13:28:23.985Z,21.10
2017-12-05T13:30:51.479Z,18.73
2017-12-05T13:33:18.895Z,16.83
2017-12-05T13:35:48.197Z,15.03
2017-12-05T13:38:15.697Z,17.30
2017-12-05T13:40:43.141Z,16.83
2017-12-05T13:43:10.537Z,10.90
2017-12-05T13:45:37.962Z,21.97
2017-12-05T13:48:05.370Z,21.70
2017-12-05T13:50:32.843Z,16.58
2017-12-05T13:53:00.247Z,19.00
2017-12-05T13:55:27.728Z,17.13
2017-12-05T13:57:55.151Z,23.13
2017-12-05T14:00:22.596Z,21.17
2017-12-05T14:02:50.076Z,16.83
2017-12-05T14:05:17.513Z,14.13
2017-12-05T14:07:44.938Z,15.27
2017-12-05T14:10:12.350Z,18.20
2017-12-05T14:12:39.785Z,19.00
2017-12-05T14:15:07.185Z,13.93
2017-12-05T14:17:34.613Z,12.70
2017-12-05T14:20:02.073Z,17.17
2017-12-05T14:22:29.596Z,12.83
2017-12-05T14:24:57.010Z,23.02
2017-12-05T14:27:24.412Z,19.53
2017-12-05T14:29:51.914Z,14.83
2017-12-05T14:32:19.316Z,20.97
2017-12-05T14:34:46.727Z,18.07
2017-12-05T14:37:14.176Z,15.40
2017-12-05T14:39:41.650Z,12.03
2017-12-05T14:42:09.161Z,21.70
2017-12-05T14:44:36.583Z,14.90
2017-12-05T14:47:04.046Z,22.70
2017-12-05T14:49:31.478Z,11.90
2017-12-05T14:51:59.091Z,15.37
2017-12-05T14:54:26.547Z,12.63
2017-12-05T14:56:54.100Z,18.43
2017-12-05T14:59:21.535Z,20.17
2017-12-05T15:01:49.009Z,12.60
2017-12-05T15:04:16.442Z,13.53
2017-12-05T15:06:44.044Z,15.33
2017-12-05T15:09:11.486Z,19.63
2017-12-05T15:11:39.046Z,16.93
2017-12-05T15:14:06.481Z,12.87
2017-12-05T15:16:34.021Z,12.93
2017-12-05T15:19:01.550Z,15.97
2017-12-05T15:21:28.947Z,16.37
2017-12-05T15:23:56.440Z,13.68
2017-12-05T15:26:23.880Z,23.53
2017-12-05T15:28:51.331Z,25.33
2017-12-05T15:31:18.890Z,18.17
2017-12-05T15:33:46.377Z,17.43
2017-12-05T15:36:13.950Z,15.27
2017-12-05T15:38:41.426Z,30.17
2017-12-05T15:41:08.827Z,20.47
2017-12-05T15:43:36.308Z,29.93
2017-12-05T15:46:03.767Z,18.90
2017-12-05T15:48:31.186Z,15.70
2017-12-05T15:50:58.700Z,14.97
2017-12-05T15:53:26.125Z,33.83
2017-12-05T15:55:53.586Z,33.10
2017-12-05T15:58:21.032Z,21.97
2017-12-05T16:00:48.501Z,52.90
2017-12-05T16:03:16.032Z,16.10
2017-12-05T16:05:43.521Z,16.73
2017-12-05T16:08:11.755Z,16.35
2017-12-05T16:10:39.181Z,27.27
2017-12-05T16:13:07.521Z,19.00
2017-12-05T16:15:34.987Z,18.33
2017-12-05T16:18:02.486Z,19.70
2017-12-05T16:20:29.997Z,16.97
2017-12-05T16:22:57.400Z,18.47
2017-12-05T16:25:24.837Z,17.80
2017-12-05T16:27:52.282Z,17.60
2017-12-05T16:30:19.722Z,26.30
2017-12-05T16:32:47.178Z,20.53
2017-12-05T16:35:14.638Z,16.92
2017-12-05T16:37:42.131Z,21.90
2017-12-05T16:40:09.835Z,19.03
2017-12-05T16:42:37.353Z,20.13
2017-12-05T16:45:04.758Z,19.03
2017-12-05T16:47:32.262Z,25.83
2017-12-05T16:49:59.643Z,26.13
2017-12-05T16:52:27.029Z,18.67
2017-12-05T16:54:54.542Z,19.23
2017-12-05T16:57:21.937Z,21.83
2017-12-05T16:59:49.393Z,23.03
2017-12-05T17:02:16.892Z,21.15
2017-12-05T17:04:44.518Z,20.33
2017-12-05T17:07:12.075Z,24.73
2017-12-05T17:09:39.589Z,20.20
2017-12-05T17:12:07.097Z,30.00
2017-12-05T17:14:34.561Z,22.17
2017-12-05T17:17:02.007Z,32.75
2017-12-05T17:19:29.553Z,21.27
2017-12-05T17:21:57.259Z,19.60
2017-12-05T17:24:26.046Z,22.93
2017-12-05T17:26:53.475Z,19.90
2017-12-05T17:29:20.932Z,21.87
2017-12-05T17:31:49.136Z,19.45
2017-12-05T17:34:16.651Z,19.17
2017-12-05T17:36:44.214Z,18.67
2017-12-05T17:39:11.660Z,25.60
2017-12-05T17:41:39.118Z,20.62
2017-12-05T17:44:06.686Z,18.57
2017-12-05T17:46:34.243Z,21.83
2017-12-05T17:49:01.712Z,21.20
2017-12-05T17:51:29.207Z,20.17
2017-12-05T17:53:56.802Z,28.70
2017-12-05T17:56:24.400Z,22.83
2017-12-05T17:58:51.901Z,21.43
2017-12-05T18:01:19.520Z,21.93
2017-12-05T18:03:46.947Z,19.83
2017-12-05T18:06:14.356Z,19.63
2017-12-05T18:08:41.815Z,25.13
2017-12-05T18:11:09.331Z,22.85
2017-12-05T18:13:36.835Z,19.33
2017-12-05T18:16:04.385Z,21.15
2017-12-05T18:18:31.811Z,21.03
2017-12-05T18:20:59.262Z,19.10
2017-12-05T18:23:26.721Z,31.80
2017-12-05T18:25:54.140Z,21.40
2017-12-05T18:28:21.623Z,17.80
2017-12-05T18:30:49.097Z,19.60
2017-12-05T18:33:17.124Z,23.17
2017-12-05T18:35:44.566Z,19.70
2017-12-05T18:38:12.018Z,17.60
2017-12-05T18:40:39.554Z,21.77
2017-12-05T18:43:06.967Z,20.67
2017-12-05T18:45:34.520Z,22.83
2017-12-05T18:48:02.126Z,27.23
2017-12-05T18:50:29.583Z,20.50
2017-12-05T18:52:57.083Z,20.40
2017-12-05T18:55:24.593Z,20.40
2017-12-05T18:57:52.085Z,19.57
2017-12-05T19:00:19.646Z,19.33
2017-12-05T19:02:47.167Z,20.30
2017-12-05T19:05:14.630Z,20.48
2017-12-05T19:07:42.853Z,20.90
2017-12-05T19:10:10.775Z,18.00
2017-12-05T19:12:38.203Z,20.20
2017-12-05T19:15:05.690Z,20.40
2017-12-05T19:17:33.207Z,19.63
2017-12-05T19:20:00.861Z,22.23
2017-12-05T19:22:30.177Z,23.93
2017-12-05T19:24:58.201Z,20.40
2017-12-05T19:27:25.938Z,31.63
2017-12-05T19:29:53.416Z,19.00
2017-12-05T19:32:20.899Z,21.90
2017-12-05T19:34:48.357Z,21.13
2017-12-05T19:37:16.033Z,21.30
2017-12-05T19:39:43.485Z,18.70
2017-12-05T19:42:11.112Z,18.77
2017-12-05T19:44:38.581Z,18.63
2017-12-05T19:47:06.132Z,20.10
2017-12-05T19:49:33.609Z,20.87
2017-12-05T19:52:01.069Z,23.20
2017-12-05T19:54:28.692Z,18.10
2017-12-05T19:56:56.195Z,20.60
2017-12-05T19:59:23.671Z,21.10
2017-12-05T20:01:51.101Z,23.43
2017-12-05T20:04:18.650Z,16.90
2017-12-05T20:06:46.185Z,18.00
2017-12-05T20:09:13.678Z,17.77
2017-12-05T20:11:41.316Z,18.70
2017-12-05T20:14:08.898Z,18.07
2017-12-05T20:16:36.514Z,16.97
2017-12-05T20:19:04.008Z,17.53
2017-12-05T20:21:31.487Z,18.23
2017-12-05T20:24:00.528Z,20.67
2017-12-05T20:26:28.271Z,26.67
2017-12-05T20:28:56.957Z,18.37
2017-12-05T20:31:25.305Z,16.17
2017-12-05T20:33:52.875Z,20.10
2017-12-05T20:36:20.540Z,19.67
2017-12-05T20:38:49.847Z,20.87
2017-12-05T20:41:17.700Z,18.23
2017-12-05T20:43:45.248Z,20.40
2017-12-05T20:46:12.664Z,21.87
2017-12-05T20:48:40.264Z,18.30
2017-12-05T20:51:07.908Z,18.83
2017-12-05T20:53:35.357Z,24.60
2017-12-05T20:56:02.802Z,20.53
2017-12-05T20:58:30.445Z,19.90
2017-12-05T21:00:57.916Z,28.30
2017-12-05T21:03:29.201Z,18.40
2017-12-05T21:06:00.278Z,19.30
2017-12-05T21:08:27.987Z,20.70
2017-12-05T21:10:55.445Z,19.30
2017-12-05T21:13:23.034Z,23.40
2017-12-05T21:15:50.642Z,23.40
2017-12-05T21:18:18.124Z,22.73
2017-12-05T21:20:46.497Z,19.60
2017-12-05T21:23:13.987Z,20.80
2017-12-05T21:25:41.635Z,23.20
2017-12-05T21:28:09.089Z,22.47
2017-12-05T21:30:36.527Z,18.67
2017-12-05T21:33:03.986Z,21.60
2017-12-05T21:35:31.487Z,23.80
2017-12-05T21:37:59.036Z,18.30
2017-12-05T21:40:26.542Z,20.60
2017-12-05T21:42:53.961Z,27.13
2017-12-05T21:45:21.382Z,20.23
2017-12-05T21:47:48.831Z,18.93
2017-12-05T21:50:16.234Z,23.43
2017-12-05T21:52:43.748Z,27.17
2017-12-05T21:55:11.254Z,21.03
2017-12-05T21:57:38.706Z,18.90
2017-12-05T22:00:06.111Z,27.30
2017-12-05T22:02:33.651Z,25.13
2017-12-05T22:05:01.127Z,21.60
2017-12-05T22:07:28.581Z,25.50
2017-12-05T22:09:56.002Z,27.90
2017-12-05T22:12:23.418Z,24.40
2017-12-05T22:14:50.875Z,25.77
2017-12-05T22:17:18.487Z,20.10
2017-12-05T22:19:45.956Z,28.13
2017-12-05T22:22:13.424Z,24.97
2017-12-05T22:24:41.049Z,24.97
2017-12-05T22:27:08.500Z,22.83
2017-12-05T22:29:35.918Z,24.30
2017-12-05T22:32:03.346Z,27.10
2017-12-05T22:34:30.771Z,23.40
2017-12-05T22:36:58.185Z,25.40
2017-12-05T22:39:25.665Z,22.43
2017-12-05T22:41:53.147Z,26.23
2017-12-05T22:44:20.877Z,27.85
2017-12-05T22:46:48.325Z,23.80
2017-12-05T22:49:15.758Z,28.33
2017-12-05T22:51:43.213Z,26.73
2017-12-05T22:54:10.645Z,26.40
2017-12-05T22:56:38.082Z,27.63
2017-12-05T22:59:06.437Z,20.60
2017-12-05T23:01:33.881Z,26.58
2017-12-05T23:04:01.286Z,26.60
2017-12-05T23:06:28.760Z,29.03
2017-12-05T23:08:56.160Z,25.37
2017-12-05T23:11:23.575Z,24.47
2017-12-05T23:13:51.000Z,23.23
2017-12-05T23:16:18.406Z,26.43
2017-12-05T23:18:46.049Z,25.42
2017-12-05T23:21:13.446Z,24.40
2017-12-05T23:23:40.912Z,26.85
2017-12-05T23:26:08.535Z,27.77
2017-12-05T23:28:35.946Z,24.30
2017-12-05T23:31:03.388Z,21.70
2017-12-05T23:33:30.820Z,20.93
2017-12-05T23:35:58.360Z,19.07
2017-12-05T23:38:25.755Z,23.03
2017-12-05T23:40:53.198Z,21.53
2017-12-05T23:43:20.789Z,18.60
2017-12-05T23:45:48.181Z,23.33
2017-12-05T23:48:15.637Z,24.97
2017-12-05T23:50:43.067Z,20.10
2017-12-05T23:53:10.470Z,25.20
2017-12-05T23:55:37.906Z,19.43
2017-12-05T23:58:05.861Z,21.60
